createdAt,value
2023-02-20T00:03:31.185Z,10.07
2023-02-20T00:08:34.933Z,10.60
2023-02-20T00:13:38.733Z,15.30
2023-02-20T00:18:45.028Z,13.93
2023-02-20T00:23:48.718Z,8.67
2023-02-20T00:28:52.392Z,9.48
2023-02-20T00:33:57.601Z,12.93
2023-02-20T00:39:01.348Z,11.45
2023-02-20T00:44:05.407Z,15.05
2023-02-20T00:49:10.525Z,15.55
2023-02-20T00:54:23.495Z,10.75
2023-02-20T00:59:28.299Z,13.48
2023-02-20T01:04:34.021Z,10.35
2023-02-20T01:09:39.309Z,16.65
2023-02-20T01:14:43.254Z,12.45
2023-02-20T01:19:48.329Z,14.73
2023-02-20T01:24:54.873Z,14.00
2023-02-20T01:29:59.232Z,16.15
2023-02-20T01:35:04.420Z,13.73
2023-02-20T01:40:09.407Z,17.45
2023-02-20T01:45:17.154Z,11.07
2023-02-20T01:50:26.816Z,13.43
2023-02-20T01:55:33.897Z,18.65
2023-02-20T02:00:38.576Z,11.55
2023-02-20T02:05:47.266Z,15.77
2023-02-20T02:10:55.858Z,22.10
2023-02-20T02:16:13.069Z,20.48
2023-02-20T02:22:01.909Z,15.15
2023-02-20T02:27:35.354Z,15.70
2023-02-20T02:33:03.449Z,22.58
2023-02-20T02:38:16.805Z,18.63
2023-02-20T02:43:30.304Z,21.10
2023-02-20T02:48:38.737Z,20.33
2023-02-20T02:53:43.824Z,24.55
2023-02-20T02:58:47.912Z,28.02
2023-02-20T03:03:54.496Z,32.08
2023-02-20T03:09:03.702Z,42.60
2023-02-20T03:14:28.362Z,33.63
2023-02-20T03:19:36.844Z,41.55
2023-02-20T03:24:56.179Z,39.40
2023-02-20T03:30:19.775Z,44.50
2023-02-20T03:35:44.748Z,41.78
2023-02-20T03:41:09.240Z,37.75
2023-02-20T03:46:18.532Z,35.58
2023-02-20T03:51:23.457Z,37.67
2023-02-20T03:56:38.285Z,37.78
2023-02-20T04:01:44.831Z,32.58
2023-02-20T04:06:52.259Z,28.75
2023-02-20T04:12:04.978Z,34.42
2023-02-20T04:17:14.688Z,29.50
2023-02-20T04:22:23.812Z,25.98
2023-02-20T04:27:29.270Z,28.75
2023-02-20T04:37:38.633Z,28.05
2023-02-20T04:42:44.495Z,34.78
2023-02-20T04:47:48.695Z,35.78
2023-02-20T04:52:54.343Z,28.17
2023-02-20T04:57:59.992Z,29.50
2023-02-20T05:03:08.802Z,31.00
2023-02-20T05:08:12.514Z,33.13
2023-02-20T05:13:17.552Z,30.85
2023-02-20T05:18:26.102Z,27.85
2023-02-20T05:23:29.762Z,25.52
2023-02-20T05:28:34.901Z,32.47
2023-02-20T05:33:38.586Z,29.63
2023-02-20T05:38:47.776Z,25.98
2023-02-20T05:43:54.706Z,27.23
2023-02-20T05:48:58.386Z,27.45
2023-02-20T05:54:02.241Z,20.45
2023-02-20T05:59:07.313Z,28.48
2023-02-20T06:04:11.207Z,22.90
2023-02-20T06:09:16.850Z,28.33
2023-02-20T06:14:24.268Z,26.75
2023-02-20T06:19:27.935Z,29.85
2023-02-20T06:24:31.640Z,25.70
2023-02-20T06:29:36.762Z,28.55
2023-02-20T06:34:40.443Z,31.90
2023-02-20T06:39:45.922Z,33.90
2023-02-20T06:44:50.936Z,35.85
2023-02-20T06:49:54.615Z,28.58
2023-02-20T06:54:59.216Z,29.52
2023-02-20T07:00:04.755Z,32.10
2023-02-20T07:05:10.164Z,23.10
2023-02-20T07:10:13.881Z,26.23
2023-02-20T07:15:19.814Z,30.48
2023-02-20T07:20:23.581Z,22.35
2023-02-20T07:25:27.307Z,27.02
2023-02-20T07:30:32.444Z,23.27
2023-02-20T07:35:36.157Z,20.63
2023-02-20T07:40:42.512Z,22.97
2023-02-20T07:45:47.684Z,24.58
2023-02-20T07:50:52.853Z,23.65
2023-02-20T07:55:56.470Z,24.40
2023-02-20T08:01:01.719Z,23.95
2023-02-20T08:06:05.993Z,24.63
2023-02-20T08:11:10.432Z,19.35
2023-02-20T08:16:16.139Z,24.20
2023-02-20T08:21:20.285Z,15.95
2023-02-20T08:26:24.669Z,25.95
2023-02-20T08:31:32.805Z,18.33
2023-02-20T08:36:36.852Z,22.75
2023-02-20T08:41:44.316Z,28.92
2023-02-20T08:46:50.959Z,28.65
2023-02-20T08:51:58.479Z,21.10
2023-02-20T08:57:02.148Z,18.42
2023-02-20T09:02:07.533Z,24.75
2023-02-20T09:07:11.323Z,22.83
2023-02-20T09:12:17.568Z,20.38
2023-02-20T09:17:22.778Z,26.43
2023-02-20T09:22:27.518Z,19.20
2023-02-20T09:27:31.146Z,23.55
2023-02-20T09:32:36.509Z,26.15
2023-02-20T09:37:40.245Z,19.20
2023-02-20T09:42:53.891Z,21.98
2023-02-20T09:48:11.157Z,19.08
2023-02-20T09:53:24.417Z,17.30
2023-02-20T09:58:34.878Z,20.55
2023-02-20T10:03:53.115Z,24.92
2023-02-20T10:08:57.555Z,25.50
2023-02-20T10:14:15.226Z,22.98
2023-02-20T10:19:30.908Z,25.70
2023-02-20T10:24:46.670Z,25.83
2023-02-20T10:29:51.424Z,23.52
2023-02-20T10:35:03.952Z,24.65
2023-02-20T10:40:18.774Z,43.47
2023-02-20T10:45:31.438Z,26.38
2023-02-20T10:50:45.156Z,27.48
2023-02-20T10:55:55.637Z,23.35
2023-02-20T11:01:02.874Z,33.53
2023-02-20T11:06:13.016Z,28.50
2023-02-20T11:11:26.683Z,31.85
2023-02-20T11:16:33.788Z,28.77
2023-02-20T11:21:46.193Z,34.47
2023-02-20T11:26:52.277Z,27.08
2023-02-20T11:31:56.395Z,29.80
2023-02-20T11:37:07.873Z,92.32
2023-02-20T11:42:14.494Z,23.38
2023-02-20T11:47:25.062Z,24.02
2023-02-20T11:52:30.288Z,30.38
2023-02-20T11:57:35.449Z,20.63
2023-02-20T12:02:50.351Z,30.92
2023-02-20T12:08:00.099Z,27.92
2023-02-20T12:13:05.420Z,27.85
2023-02-20T12:18:34.263Z,27.67
2023-02-20T12:23:48.031Z,26.30
2023-02-20T12:29:04.564Z,32.75
2023-02-20T12:34:31.749Z,27.73
2023-02-20T12:39:45.446Z,20.67
2023-02-20T12:45:04.364Z,21.60
2023-02-20T12:50:40.423Z,23.60
2023-02-20T12:55:53.464Z,15.33
2023-02-20T13:01:01.558Z,20.00
2023-02-20T13:06:06.915Z,13.55
2023-02-20T13:11:20.139Z,14.02
2023-02-20T13:16:30.406Z,13.80
2023-02-20T13:21:34.567Z,14.60
2023-02-20T13:26:53.334Z,16.05
2023-02-20T13:32:00.028Z,12.50
2023-02-20T13:37:04.642Z,11.43
2023-02-20T13:42:37.394Z,11.50
2023-02-20T13:47:41.257Z,10.35
2023-02-20T13:52:46.354Z,13.00
2023-02-20T13:57:53.455Z,16.13
2023-02-20T14:08:03.382Z,14.10
2023-02-20T14:13:15.543Z,16.17
2023-02-20T14:18:21.539Z,10.60
2023-02-20T14:23:28.567Z,14.38
2023-02-20T14:28:36.869Z,11.13
2023-02-20T14:33:40.838Z,10.73
2023-02-20T14:38:59.346Z,14.82
2023-02-20T14:44:07.598Z,8.18
2023-02-20T14:49:14.032Z,16.35
2023-02-20T14:54:21.683Z,13.50
2023-02-20T14:59:33.428Z,11.73
2023-02-20T15:04:38.350Z,12.15
2023-02-20T15:09:44.456Z,8.38
2023-02-20T15:14:59.990Z,11.82
2023-02-20T15:20:18.420Z,5.40
2023-02-20T15:25:30.959Z,13.25
2023-02-20T15:30:36.288Z,8.68
2023-02-20T15:35:40.031Z,6.22
2023-02-20T15:40:43.721Z,7.45
2023-02-20T15:45:48.783Z,10.02
2023-02-20T15:50:53.325Z,8.55
2023-02-20T15:55:58.533Z,8.75
2023-02-20T16:01:03.847Z,15.52
2023-02-20T16:06:08.149Z,12.27
2023-02-20T16:11:13.070Z,14.77
2023-02-20T16:16:24.812Z,12.52
2023-02-20T16:21:30.621Z,19.67
2023-02-20T16:26:35.896Z,14.18
2023-02-20T16:32:17.832Z,10.80
2023-02-20T16:37:21.922Z,18.23
2023-02-20T16:42:29.662Z,15.07
2023-02-20T16:47:34.811Z,15.02
2023-02-20T16:52:40.021Z,12.75
2023-02-20T16:57:43.751Z,14.48
2023-02-20T17:02:49.153Z,12.73
2023-02-20T17:07:53.020Z,8.68
2023-02-20T17:12:57.389Z,12.85
2023-02-20T17:18:02.512Z,13.27
2023-02-20T17:23:06.185Z,18.52
2023-02-20T17:28:10.017Z,11.98
2023-02-20T17:33:15.997Z,15.65
2023-02-20T17:38:19.855Z,15.25
2023-02-20T17:43:27.459Z,14.90
2023-02-20T17:48:32.749Z,11.18
2023-02-20T17:53:36.430Z,11.98
2023-02-20T17:58:40.531Z,11.07
2023-02-20T18:03:45.620Z,9.15
2023-02-20T18:08:50.369Z,14.57
2023-02-20T18:13:54.301Z,10.05
2023-02-20T18:19:00.159Z,12.38
2023-02-20T18:24:05.518Z,12.40
2023-02-20T18:29:09.238Z,11.10
2023-02-20T18:34:14.392Z,15.57
2023-02-20T18:39:18.334Z,12.20
2023-02-20T18:44:23.142Z,15.30
2023-02-20T18:49:28.437Z,13.25
2023-02-20T18:54:33.536Z,15.10
2023-02-20T18:59:41.649Z,27.40
2023-02-20T19:04:49.941Z,21.55
2023-02-20T19:09:56.356Z,18.17
2023-02-20T19:15:00.122Z,17.93
2023-02-20T19:20:08.059Z,17.75
2023-02-20T19:25:11.881Z,18.08
2023-02-20T19:30:16.368Z,20.70
2023-02-20T19:35:21.502Z,24.58
2023-02-20T19:40:25.197Z,24.33
2023-02-20T19:45:29.033Z,22.63
2023-02-20T19:50:40.876Z,32.10
2023-02-20T19:55:44.648Z,30.77
2023-02-20T20:00:48.589Z,32.95
2023-02-20T20:05:53.672Z,43.40
2023-02-20T20:10:57.653Z,41.60
2023-02-20T20:16:01.588Z,42.78
2023-02-20T20:21:06.974Z,39.17
2023-02-20T20:26:10.587Z,41.42
2023-02-20T20:31:14.630Z,41.92
2023-02-20T20:36:20.052Z,42.65
2023-02-20T20:41:24.986Z,42.22
2023-02-20T20:46:28.750Z,46.80
2023-02-20T20:51:33.956Z,44.15
2023-02-20T20:56:37.653Z,41.78
2023-02-20T21:01:42.236Z,48.65
2023-02-20T21:06:47.419Z,52.75
2023-02-20T21:11:51.244Z,44.38
2023-02-20T21:16:55.010Z,45.95
2023-02-20T21:22:00.044Z,42.80
2023-02-20T21:27:04.453Z,38.05
2023-02-20T21:32:08.460Z,34.00
2023-02-20T21:37:13.606Z,34.65
2023-02-20T21:42:34.483Z,31.98
2023-02-20T21:47:38.246Z,39.75
2023-02-20T21:52:43.532Z,40.00
2023-02-20T21:57:47.288Z,42.30
2023-02-20T22:02:49.934Z,46.78
2023-02-20T22:08:12.693Z,45.40
2023-02-20T22:13:33.529Z,47.78
2023-02-20T22:18:54.919Z,48.67
2023-02-20T22:24:20.362Z,44.30
2023-02-20T22:29:43.540Z,38.45
2023-02-20T22:35:11.766Z,42.67
2023-02-20T22:40:35.058Z,34.70
2023-02-20T22:45:55.935Z,29.42
2023-02-20T22:51:17.365Z,29.20
2023-02-20T22:56:41.502Z,28.58
2023-02-20T23:02:02.411Z,28.85
2023-02-20T23:07:23.460Z,32.83
2023-02-20T23:12:45.784Z,31.00
2023-02-20T23:18:06.994Z,35.10
2023-02-20T23:23:30.032Z,45.13
2023-02-20T23:28:53.341Z,40.58
2023-02-20T23:34:14.339Z,32.85
2023-02-20T23:39:35.470Z,36.35
2023-02-20T23:44:58.113Z,36.92
2023-02-20T23:50:19.121Z,38.38
2023-02-20T23:55:39.969Z,36.03
